sensor_id;sensor_type;location;lat;lon;timestamp;P1;durP1;ratioP1;P2;durP2;ratioP2
75035;SDS011;64247;51.540;5.854;2023-03-17T00:01:02;2.35;;;1.33;;
75035;SDS011;64247;51.540;5.854;2023-03-17T00:03:04;1.48;;;1.15;;
75035;SDS011;64247;51.540;5.854;2023-03-17T00:05:13;1.27;;;0.88;;
75035;SDS011;64247;51.540;5.854;2023-03-17T00:07:16;1.40;;;0.98;;
75035;SDS011;64247;51.540;5.854;2023-03-17T00:09:18;5.30;;;1.55;;
75035;SDS011;64247;51.540;5.854;2023-03-17T00:11:20;1.42;;;1.02;;
75035;SDS011;64247;51.540;5.854;2023-03-17T00:13:21;2.00;;;0.95;;
75035;SDS011;64247;51.540;5.854;2023-03-17T00:15:24;1.13;;;0.98;;
75035;SDS011;64247;51.540;5.854;2023-03-17T00:17:26;1.33;;;1.00;;
75035;SDS011;64247;51.540;5.854;2023-03-17T00:19:28;0.90;;;0.88;;
75035;SDS011;64247;51.540;5.854;2023-03-17T00:21:34;3.08;;;1.50;;
75035;SDS011;64247;51.540;5.854;2023-03-17T00:23:36;1.45;;;0.90;;
75035;SDS011;64247;51.540;5.854;2023-03-17T00:25:37;3.38;;;1.02;;
75035;SDS011;64247;51.540;5.854;2023-03-17T00:27:42;1.20;;;1.10;;
75035;SDS011;64247;51.540;5.854;2023-03-17T00:29:43;1.70;;;1.40;;
75035;SDS011;64247;51.540;5.854;2023-03-17T00:31:45;1.58;;;0.90;;
75035;SDS011;64247;51.540;5.854;2023-03-17T00:33:47;3.03;;;1.35;;
75035;SDS011;64247;51.540;5.854;2023-03-17T00:35:54;1.80;;;1.30;;
75035;SDS011;64247;51.540;5.854;2023-03-17T00:37:58;1.33;;;1.23;;
75035;SDS011;64247;51.540;5.854;2023-03-17T00:39:59;1.45;;;1.35;;
75035;SDS011;64247;51.540;5.854;2023-03-17T00:42:00;2.05;;;1.52;;
75035;SDS011;64247;51.540;5.854;2023-03-17T00:44:01;2.03;;;1.10;;
75035;SDS011;64247;51.540;5.854;2023-03-17T00:46:23;1.23;;;0.80;;
75035;SDS011;64247;51.540;5.854;2023-03-17T00:48:34;8.05;;;1.30;;
75035;SDS011;64247;51.540;5.854;2023-03-17T00:50:37;1.10;;;0.98;;
75035;SDS011;64247;51.540;5.854;2023-03-17T00:52:37;0.88;;;0.88;;
75035;SDS011;64247;51.540;5.854;2023-03-17T00:54:39;2.63;;;1.75;;
75035;SDS011;64247;51.540;5.854;2023-03-17T00:56:41;0.80;;;0.80;;
75035;SDS011;64247;51.540;5.854;2023-03-17T00:58:43;2.13;;;1.70;;
75035;SDS011;64247;51.540;5.854;2023-03-17T01:00:46;1.90;;;1.25;;
75035;SDS011;64247;51.540;5.854;2023-03-17T01:02:47;2.72;;;1.40;;
75035;SDS011;64247;51.540;5.854;2023-03-17T01:04:49;2.17;;;1.27;;
75035;SDS011;64247;51.540;5.854;2023-03-17T01:06:49;1.13;;;0.55;;
75035;SDS011;64247;51.540;5.854;2023-03-17T01:08:52;3.35;;;1.38;;
75035;SDS011;64247;51.540;5.854;2023-03-17T01:10:55;1.10;;;0.98;;
75035;SDS011;64247;51.540;5.854;2023-03-17T01:12:57;1.05;;;0.95;;
75035;SDS011;64247;51.540;5.854;2023-03-17T01:14:59;3.28;;;1.25;;
75035;SDS011;64247;51.540;5.854;2023-03-17T01:17:00;1.65;;;1.13;;
75035;SDS011;64247;51.540;5.854;2023-03-17T01:19:01;2.10;;;1.05;;
75035;SDS011;64247;51.540;5.854;2023-03-17T01:21:02;1.73;;;0.82;;
75035;SDS011;64247;51.540;5.854;2023-03-17T01:23:04;1.00;;;0.80;;
75035;SDS011;64247;51.540;5.854;2023-03-17T01:25:06;0.95;;;0.95;;
75035;SDS011;64247;51.540;5.854;2023-03-17T01:27:07;2.08;;;1.52;;
75035;SDS011;64247;51.540;5.854;2023-03-17T01:29:08;1.00;;;0.90;;
75035;SDS011;64247;51.540;5.854;2023-03-17T01:31:09;3.05;;;1.10;;
75035;SDS011;64247;51.540;5.854;2023-03-17T01:33:12;1.25;;;0.98;;
75035;SDS011;64247;51.540;5.854;2023-03-17T01:35:14;1.17;;;1.08;;
75035;SDS011;64247;51.540;5.854;2023-03-17T01:37:15;1.15;;;1.00;;
75035;SDS011;64247;51.540;5.854;2023-03-17T01:39:16;1.83;;;1.45;;
75035;SDS011;64247;51.540;5.854;2023-03-17T01:41:17;1.88;;;1.20;;
75035;SDS011;64247;51.540;5.854;2023-03-17T01:43:21;2.63;;;1.70;;
75035;SDS011;64247;51.540;5.854;2023-03-17T01:48:05;1.98;;;1.08;;
75035;SDS011;64247;51.540;5.854;2023-03-17T01:50:07;0.43;;;0.43;;
75035;SDS011;64247;51.540;5.854;2023-03-17T01:52:12;0.80;;;0.80;;
75035;SDS011;64247;51.540;5.854;2023-03-17T01:54:23;2.15;;;1.42;;
75035;SDS011;64247;51.540;5.854;2023-03-17T01:56:50;2.55;;;0.98;;
75035;SDS011;64247;51.540;5.854;2023-03-17T01:58:57;3.17;;;1.30;;
75035;SDS011;64247;51.540;5.854;2023-03-17T02:01:04;0.95;;;0.90;;
75035;SDS011;64247;51.540;5.854;2023-03-17T02:03:06;1.10;;;1.00;;
75035;SDS011;64247;51.540;5.854;2023-03-17T02:05:08;4.35;;;1.23;;
75035;SDS011;64247;51.540;5.854;2023-03-17T02:07:13;1.00;;;1.00;;
75035;SDS011;64247;51.540;5.854;2023-03-17T02:09:15;1.02;;;0.93;;
75035;SDS011;64247;51.540;5.854;2023-03-17T02:11:17;2.72;;;1.00;;
75035;SDS011;64247;51.540;5.854;2023-03-17T02:13:20;1.17;;;1.05;;
75035;SDS011;64247;51.540;5.854;2023-03-17T02:15:34;1.85;;;0.80;;
75035;SDS011;64247;51.540;5.854;2023-03-17T02:17:39;0.85;;;0.85;;
75035;SDS011;64247;51.540;5.854;2023-03-17T02:19:42;2.78;;;1.02;;
75035;SDS011;64247;51.540;5.854;2023-03-17T02:21:52;1.00;;;1.00;;
75035;SDS011;64247;51.540;5.854;2023-03-17T02:23:56;1.00;;;0.90;;
75035;SDS011;64247;51.540;5.854;2023-03-17T02:26:01;7.22;;;1.20;;
75035;SDS011;64247;51.540;5.854;2023-03-17T02:28:06;1.60;;;1.30;;
75035;SDS011;64247;51.540;5.854;2023-03-17T02:30:17;4.95;;;1.02;;
75035;SDS011;64247;51.540;5.854;2023-03-17T02:32:20;2.05;;;1.13;;
75035;SDS011;64247;51.540;5.854;2023-03-17T02:34:21;3.85;;;1.70;;
75035;SDS011;64247;51.540;5.854;2023-03-17T02:36:22;0.80;;;0.80;;
75035;SDS011;64247;51.540;5.854;2023-03-17T02:38:23;1.50;;;1.13;;
75035;SDS011;64247;51.540;5.854;2023-03-17T02:40:25;1.40;;;1.08;;
75035;SDS011;64247;51.540;5.854;2023-03-17T02:42:28;1.02;;;0.95;;
75035;SDS011;64247;51.540;5.854;2023-03-17T02:44:32;1.45;;;1.20;;
75035;SDS011;64247;51.540;5.854;2023-03-17T02:46:32;3.65;;;1.17;;
75035;SDS011;64247;51.540;5.854;2023-03-17T02:48:34;4.10;;;1.10;;
75035;SDS011;64247;51.540;5.854;2023-03-17T02:50:36;1.42;;;1.17;;
75035;SDS011;64247;51.540;5.854;2023-03-17T02:52:37;2.03;;;1.48;;
75035;SDS011;64247;51.540;5.854;2023-03-17T02:54:37;1.50;;;1.40;;
75035;SDS011;64247;51.540;5.854;2023-03-17T02:56:38;1.10;;;0.80;;
75035;SDS011;64247;51.540;5.854;2023-03-17T02:58:40;2.17;;;1.17;;
75035;SDS011;64247;51.540;5.854;2023-03-17T03:00:40;1.35;;;1.25;;
75035;SDS011;64247;51.540;5.854;2023-03-17T03:02:41;2.38;;;0.90;;
75035;SDS011;64247;51.540;5.854;2023-03-17T03:04:42;1.27;;;1.05;;
75035;SDS011;64247;51.540;5.854;2023-03-17T03:06:45;1.35;;;1.20;;
75035;SDS011;64247;51.540;5.854;2023-03-17T03:08:46;2.13;;;1.38;;
75035;SDS011;64247;51.540;5.854;2023-03-17T03:10:47;2.25;;;0.88;;
75035;SDS011;64247;51.540;5.854;2023-03-17T03:12:48;1.00;;;0.90;;
75035;SDS011;64247;51.540;5.854;2023-03-17T03:14:49;1.45;;;1.08;;
75035;SDS011;64247;51.540;5.854;2023-03-17T03:16:50;1.35;;;1.25;;
75035;SDS011;64247;51.540;5.854;2023-03-17T03:18:51;2.85;;;0.98;;
75035;SDS011;64247;51.540;5.854;2023-03-17T03:20:52;1.90;;;1.02;;
75035;SDS011;64247;51.540;5.854;2023-03-17T03:22:53;1.30;;;1.08;;
75035;SDS011;64247;51.540;5.854;2023-03-17T03:24:54;2.10;;;1.58;;
75035;SDS011;64247;51.540;5.854;2023-03-17T03:26:55;2.70;;;1.35;;
75035;SDS011;64247;51.540;5.854;2023-03-17T03:28:56;2.03;;;1.10;;
75035;SDS011;64247;51.540;5.854;2023-03-17T03:30:57;1.33;;;1.20;;
75035;SDS011;64247;51.540;5.854;2023-03-17T03:32:58;2.95;;;1.50;;
75035;SDS011;64247;51.540;5.854;2023-03-17T03:34:59;2.25;;;1.05;;
75035;SDS011;64247;51.540;5.854;2023-03-17T03:37:00;1.35;;;1.25;;
75035;SDS011;64247;51.540;5.854;2023-03-17T03:39:01;0.95;;;0.80;;
75035;SDS011;64247;51.540;5.854;2023-03-17T03:41:02;2.75;;;1.50;;
75035;SDS011;64247;51.540;5.854;2023-03-17T03:43:03;1.33;;;1.15;;
75035;SDS011;64247;51.540;5.854;2023-03-17T03:45:05;3.60;;;1.48;;
75035;SDS011;64247;51.540;5.854;2023-03-17T03:47:07;1.20;;;1.10;;
75035;SDS011;64247;51.540;5.854;2023-03-17T03:49:08;2.28;;;1.45;;
75035;SDS011;64247;51.540;5.854;2023-03-17T03:51:09;3.08;;;1.27;;
75035;SDS011;64247;51.540;5.854;2023-03-17T03:53:10;0.98;;;0.82;;
75035;SDS011;64247;51.540;5.854;2023-03-17T03:55:11;3.33;;;0.90;;
75035;SDS011;64247;51.540;5.854;2023-03-17T03:57:12;3.33;;;1.00;;
75035;SDS011;64247;51.540;5.854;2023-03-17T03:59:13;3.60;;;1.40;;
75035;SDS011;64247;51.540;5.854;2023-03-17T04:01:14;2.25;;;0.98;;
75035;SDS011;64247;51.540;5.854;2023-03-17T04:03:15;3.63;;;1.88;;
75035;SDS011;64247;51.540;5.854;2023-03-17T04:05:16;3.88;;;1.52;;
75035;SDS011;64247;51.540;5.854;2023-03-17T04:07:18;3.60;;;1.10;;
75035;SDS011;64247;51.540;5.854;2023-03-17T04:09:20;2.30;;;1.45;;
75035;SDS011;64247;51.540;5.854;2023-03-17T04:11:21;2.35;;;1.50;;
75035;SDS011;64247;51.540;5.854;2023-03-17T04:15:23;5.35;;;1.45;;
75035;SDS011;64247;51.540;5.854;2023-03-17T04:17:24;3.90;;;2.22;;
75035;SDS011;64247;51.540;5.854;2023-03-17T04:19:24;1.77;;;1.40;;
75035;SDS011;64247;51.540;5.854;2023-03-17T04:21:26;2.67;;;1.65;;
75035;SDS011;64247;51.540;5.854;2023-03-17T04:23:27;3.28;;;1.73;;
75035;SDS011;64247;51.540;5.854;2023-03-17T04:25:30;2.10;;;1.13;;
75035;SDS011;64247;51.540;5.854;2023-03-17T04:27:31;4.25;;;1.75;;
75035;SDS011;64247;51.540;5.854;2023-03-17T04:29:33;2.05;;;1.50;;
75035;SDS011;64247;51.540;5.854;2023-03-17T04:31:35;2.05;;;1.20;;
75035;SDS011;64247;51.540;5.854;2023-03-17T04:33:36;1.83;;;1.42;;
75035;SDS011;64247;51.540;5.854;2023-03-17T04:35:37;4.40;;;1.98;;
75035;SDS011;64247;51.540;5.854;2023-03-17T04:39:39;4.00;;;1.60;;
75035;SDS011;64247;51.540;5.854;2023-03-17T04:41:39;2.30;;;2.00;;
75035;SDS011;64247;51.540;5.854;2023-03-17T04:43:41;1.13;;;0.95;;
75035;SDS011;64247;51.540;5.854;2023-03-17T04:45:42;3.03;;;2.05;;
75035;SDS011;64247;51.540;5.854;2023-03-17T04:47:43;1.27;;;1.13;;
75035;SDS011;64247;51.540;5.854;2023-03-17T04:49:45;4.18;;;2.22;;
75035;SDS011;64247;51.540;5.854;2023-03-17T04:51:46;6.10;;;1.83;;
75035;SDS011;64247;51.540;5.854;2023-03-17T04:53:47;4.18;;;1.88;;
75035;SDS011;64247;51.540;5.854;2023-03-17T04:55:48;3.15;;;1.88;;
75035;SDS011;64247;51.540;5.854;2023-03-17T04:57:49;3.47;;;2.25;;
75035;SDS011;64247;51.540;5.854;2023-03-17T04:59:49;4.00;;;1.90;;
75035;SDS011;64247;51.540;5.854;2023-03-17T05:01:50;4.10;;;1.98;;
75035;SDS011;64247;51.540;5.854;2023-03-17T05:03:51;2.58;;;2.38;;
75035;SDS011;64247;51.540;5.854;2023-03-17T05:05:52;4.10;;;2.05;;
75035;SDS011;64247;51.540;5.854;2023-03-17T05:07:53;2.67;;;1.85;;
75035;SDS011;64247;51.540;5.854;2023-03-17T05:09:54;4.28;;;2.55;;
75035;SDS011;64247;51.540;5.854;2023-03-17T05:11:56;3.75;;;2.00;;
75035;SDS011;64247;51.540;5.854;2023-03-17T05:13:57;4.40;;;1.65;;
75035;SDS011;64247;51.540;5.854;2023-03-17T05:15:58;2.58;;;1.90;;
75035;SDS011;64247;51.540;5.854;2023-03-17T05:18:00;3.67;;;1.27;;
75035;SDS011;64247;51.540;5.854;2023-03-17T05:20:00;6.28;;;1.83;;
75035;SDS011;64247;51.540;5.854;2023-03-17T05:24:02;1.63;;;1.40;;
75035;SDS011;64247;51.540;5.854;2023-03-17T05:26:04;4.22;;;2.50;;
75035;SDS011;64247;51.540;5.854;2023-03-17T05:28:06;4.22;;;2.20;;
75035;SDS011;64247;51.540;5.854;2023-03-17T05:30:08;2.10;;;1.45;;
75035;SDS011;64247;51.540;5.854;2023-03-17T05:32:10;1.50;;;1.40;;
75035;SDS011;64247;51.540;5.854;2023-03-17T05:34:11;2.28;;;1.98;;
75035;SDS011;64247;51.540;5.854;2023-03-17T05:36:12;3.17;;;1.92;;
75035;SDS011;64247;51.540;5.854;2023-03-17T05:38:13;4.43;;;1.65;;
75035;SDS011;64247;51.540;5.854;2023-03-17T05:40:15;1.67;;;1.52;;
75035;SDS011;64247;51.540;5.854;2023-03-17T05:42:16;2.67;;;2.03;;
75035;SDS011;64247;51.540;5.854;2023-03-17T05:44:17;3.40;;;2.22;;
75035;SDS011;64247;51.540;5.854;2023-03-17T05:46:19;5.80;;;1.80;;
75035;SDS011;64247;51.540;5.854;2023-03-17T05:48:21;2.60;;;1.50;;
75035;SDS011;64247;51.540;5.854;2023-03-17T05:50:22;4.22;;;2.60;;
75035;SDS011;64247;51.540;5.854;2023-03-17T05:52:24;6.30;;;2.28;;
75035;SDS011;64247;51.540;5.854;2023-03-17T05:54:25;2.15;;;1.92;;
75035;SDS011;64247;51.540;5.854;2023-03-17T05:56:26;2.55;;;2.05;;
75035;SDS011;64247;51.540;5.854;2023-03-17T05:58:32;1.58;;;1.48;;
75035;SDS011;64247;51.540;5.854;2023-03-17T06:00:33;4.85;;;1.92;;
75035;SDS011;64247;51.540;5.854;2023-03-17T06:02:35;3.55;;;1.75;;
75035;SDS011;64247;51.540;5.854;2023-03-17T06:04:36;3.92;;;2.33;;
75035;SDS011;64247;51.540;5.854;2023-03-17T06:06:38;3.60;;;1.90;;
75035;SDS011;64247;51.540;5.854;2023-03-17T06:08:39;3.35;;;1.83;;
75035;SDS011;64247;51.540;5.854;2023-03-17T06:10:41;4.35;;;2.55;;
75035;SDS011;64247;51.540;5.854;2023-03-17T06:12:42;3.83;;;1.73;;
75035;SDS011;64247;51.540;5.854;2023-03-17T06:14:43;4.50;;;2.40;;
75035;SDS011;64247;51.540;5.854;2023-03-17T06:16:44;4.88;;;1.20;;
75035;SDS011;64247;51.540;5.854;2023-03-17T06:18:45;3.88;;;1.83;;
75035;SDS011;64247;51.540;5.854;2023-03-17T06:20:46;4.20;;;1.95;;
75035;SDS011;64247;51.540;5.854;2023-03-17T06:22:47;3.22;;;2.65;;
75035;SDS011;64247;51.540;5.854;2023-03-17T06:24:48;4.03;;;1.85;;
75035;SDS011;64247;51.540;5.854;2023-03-17T06:26:49;4.50;;;1.52;;
75035;SDS011;64247;51.540;5.854;2023-03-17T06:28:52;2.88;;;2.08;;
75035;SDS011;64247;51.540;5.854;2023-03-17T06:30:52;4.15;;;2.05;;
75035;SDS011;64247;51.540;5.854;2023-03-17T06:32:53;5.65;;;2.30;;
75035;SDS011;64247;51.540;5.854;2023-03-17T06:34:55;3.53;;;1.90;;
75035;SDS011;64247;51.540;5.854;2023-03-17T06:36:56;4.45;;;2.67;;
75035;SDS011;64247;51.540;5.854;2023-03-17T06:38:58;1.63;;;1.48;;
75035;SDS011;64247;51.540;5.854;2023-03-17T06:40:59;4.22;;;2.25;;
75035;SDS011;64247;51.540;5.854;2023-03-17T06:43:01;2.80;;;1.83;;
75035;SDS011;64247;51.540;5.854;2023-03-17T06:45:02;3.75;;;1.70;;
75035;SDS011;64247;51.540;5.854;2023-03-17T06:47:04;2.40;;;1.52;;
75035;SDS011;64247;51.540;5.854;2023-03-17T06:49:05;2.83;;;1.73;;
75035;SDS011;64247;51.540;5.854;2023-03-17T06:51:07;3.75;;;1.67;;
75035;SDS011;64247;51.540;5.854;2023-03-17T06:53:08;1.60;;;1.50;;
75035;SDS011;64247;51.540;5.854;2023-03-17T06:55:09;3.05;;;1.70;;
75035;SDS011;64247;51.540;5.854;2023-03-17T06:57:11;3.00;;;1.70;;
75035;SDS011;64247;51.540;5.854;2023-03-17T06:59:12;1.90;;;1.70;;
75035;SDS011;64247;51.540;5.854;2023-03-17T07:01:13;1.83;;;1.42;;
75035;SDS011;64247;51.540;5.854;2023-03-17T07:03:14;2.90;;;1.63;;
75035;SDS011;64247;51.540;5.854;2023-03-17T07:05:16;8.23;;;1.80;;
75035;SDS011;64247;51.540;5.854;2023-03-17T07:07:17;2.25;;;1.95;;
75035;SDS011;64247;51.540;5.854;2023-03-17T07:09:20;3.60;;;2.13;;
75035;SDS011;64247;51.540;5.854;2023-03-17T07:11:21;5.40;;;1.90;;
75035;SDS011;64247;51.540;5.854;2023-03-17T07:13:23;2.65;;;1.77;;
75035;SDS011;64247;51.540;5.854;2023-03-17T07:15:25;1.80;;;0.90;;
75035;SDS011;64247;51.540;5.854;2023-03-17T07:17:26;3.22;;;1.95;;
75035;SDS011;64247;51.540;5.854;2023-03-17T07:19:28;4.18;;;1.95;;
75035;SDS011;64247;51.540;5.854;2023-03-17T07:21:30;2.70;;;1.40;;
75035;SDS011;64247;51.540;5.854;2023-03-17T07:23:31;4.63;;;1.60;;
75035;SDS011;64247;51.540;5.854;2023-03-17T07:25:32;2.90;;;1.95;;
75035;SDS011;64247;51.540;5.854;2023-03-17T07:27:35;5.10;;;1.67;;
75035;SDS011;64247;51.540;5.854;2023-03-17T07:29:37;3.13;;;1.70;;
75035;SDS011;64247;51.540;5.854;2023-03-17T07:31:38;5.97;;;1.85;;
75035;SDS011;64247;51.540;5.854;2023-03-17T07:33:39;2.03;;;1.50;;
75035;SDS011;64247;51.540;5.854;2023-03-17T07:35:40;3.10;;;1.60;;
75035;SDS011;64247;51.540;5.854;2023-03-17T07:37:41;1.92;;;1.60;;
75035;SDS011;64247;51.540;5.854;2023-03-17T07:39:42;5.32;;;1.88;;
75035;SDS011;64247;51.540;5.854;2023-03-17T07:41:43;3.90;;;2.40;;
75035;SDS011;64247;51.540;5.854;2023-03-17T07:43:47;4.25;;;1.70;;
75035;SDS011;64247;51.540;5.854;2023-03-17T07:45:48;1.88;;;1.30;;
75035;SDS011;64247;51.540;5.854;2023-03-17T07:47:50;2.35;;;2.05;;
75035;SDS011;64247;51.540;5.854;2023-03-17T07:49:51;2.50;;;1.88;;
75035;SDS011;64247;51.540;5.854;2023-03-17T07:51:52;2.55;;;1.80;;
75035;SDS011;64247;51.540;5.854;2023-03-17T07:53:53;2.97;;;1.73;;
75035;SDS011;64247;51.540;5.854;2023-03-17T07:56:02;3.45;;;1.75;;
75035;SDS011;64247;51.540;5.854;2023-03-17T07:58:04;2.35;;;1.45;;
75035;SDS011;64247;51.540;5.854;2023-03-17T08:00:06;9.10;;;2.63;;
75035;SDS011;64247;51.540;5.854;2023-03-17T08:02:29;2.80;;;1.67;;
75035;SDS011;64247;51.540;5.854;2023-03-17T08:04:30;1.90;;;1.70;;
75035;SDS011;64247;51.540;5.854;2023-03-17T08:06:31;3.72;;;1.80;;
75035;SDS011;64247;51.540;5.854;2023-03-17T08:08:32;4.20;;;1.95;;
75035;SDS011;64247;51.540;5.854;2023-03-17T08:10:33;4.97;;;2.30;;
75035;SDS011;64247;51.540;5.854;2023-03-17T08:12:34;2.33;;;2.13;;
75035;SDS011;64247;51.540;5.854;2023-03-17T08:14:35;4.60;;;2.45;;
75035;SDS011;64247;51.540;5.854;2023-03-17T08:16:36;4.22;;;2.05;;
75035;SDS011;64247;51.540;5.854;2023-03-17T08:18:37;2.50;;;1.80;;
75035;SDS011;64247;51.540;5.854;2023-03-17T08:20:38;3.03;;;1.90;;
75035;SDS011;64247;51.540;5.854;2023-03-17T08:22:40;5.47;;;1.95;;
75035;SDS011;64247;51.540;5.854;2023-03-17T08:24:41;2.08;;;1.80;;
75035;SDS011;64247;51.540;5.854;2023-03-17T08:26:42;2.47;;;2.05;;
75035;SDS011;64247;51.540;5.854;2023-03-17T08:28:43;3.22;;;2.00;;
75035;SDS011;64247;51.540;5.854;2023-03-17T08:30:44;4.28;;;2.00;;
75035;SDS011;64247;51.540;5.854;2023-03-17T08:32:47;5.70;;;2.28;;
75035;SDS011;64247;51.540;5.854;2023-03-17T08:34:51;4.68;;;2.08;;
75035;SDS011;64247;51.540;5.854;2023-03-17T08:36:53;1.58;;;1.48;;
75035;SDS011;64247;51.540;5.854;2023-03-17T08:38:54;2.80;;;2.00;;
75035;SDS011;64247;51.540;5.854;2023-03-17T08:40:58;3.45;;;1.60;;
75035;SDS011;64247;51.540;5.854;2023-03-17T08:43:02;4.50;;;3.10;;
75035;SDS011;64247;51.540;5.854;2023-03-17T08:45:04;3.47;;;2.40;;
75035;SDS011;64247;51.540;5.854;2023-03-17T08:47:09;4.72;;;2.10;;
75035;SDS011;64247;51.540;5.854;2023-03-17T08:49:10;5.70;;;1.95;;
75035;SDS011;64247;51.540;5.854;2023-03-17T08:51:12;3.50;;;2.00;;
75035;SDS011;64247;51.540;5.854;2023-03-17T08:53:14;1.92;;;1.75;;
75035;SDS011;64247;51.540;5.854;2023-03-17T08:55:15;2.20;;;2.00;;
75035;SDS011;64247;51.540;5.854;2023-03-17T08:57:17;2.15;;;1.92;;
75035;SDS011;64247;51.540;5.854;2023-03-17T08:59:18;3.78;;;2.10;;
75035;SDS011;64247;51.540;5.854;2023-03-17T09:01:20;2.40;;;2.15;;
75035;SDS011;64247;51.540;5.854;2023-03-17T09:03:23;3.45;;;2.17;;
75035;SDS011;64247;51.540;5.854;2023-03-17T09:05:24;1.85;;;1.73;;
75035;SDS011;64247;51.540;5.854;2023-03-17T09:07:25;1.85;;;1.73;;
75035;SDS011;64247;51.540;5.854;2023-03-17T09:09:26;6.10;;;1.98;;
75035;SDS011;64247;51.540;5.854;2023-03-17T09:11:28;2.10;;;1.90;;
75035;SDS011;64247;51.540;5.854;2023-03-17T09:13:32;4.05;;;1.42;;
75035;SDS011;64247;51.540;5.854;2023-03-17T09:15:35;2.58;;;1.67;;
75035;SDS011;64247;51.540;5.854;2023-03-17T09:17:36;3.05;;;1.80;;
75035;SDS011;64247;51.540;5.854;2023-03-17T09:19:37;1.85;;;1.45;;
75035;SDS011;64247;51.540;5.854;2023-03-17T09:21:39;1.50;;;1.40;;
75035;SDS011;64247;51.540;5.854;2023-03-17T09:23:40;2.70;;;1.58;;
75035;SDS011;64247;51.540;5.854;2023-03-17T09:25:42;3.83;;;1.80;;
75035;SDS011;64247;51.540;5.854;2023-03-17T09:27:43;2.03;;;1.80;;
75035;SDS011;64247;51.540;5.854;2023-03-17T09:29:44;4.32;;;2.05;;
75035;SDS011;64247;51.540;5.854;2023-03-17T09:31:45;2.10;;;1.65;;
75035;SDS011;64247;51.540;5.854;2023-03-17T09:33:46;1.40;;;1.30;;
75035;SDS011;64247;51.540;5.854;2023-03-17T09:35:49;3.95;;;1.80;;
75035;SDS011;64247;51.540;5.854;2023-03-17T09:37:52;2.50;;;1.98;;
75035;SDS011;64247;51.540;5.854;2023-03-17T09:39:53;6.18;;;2.78;;
75035;SDS011;64247;51.540;5.854;2023-03-17T09:45:02;2.65;;;1.98;;
75035;SDS011;64247;51.540;5.854;2023-03-17T09:50:24;4.75;;;1.85;;
75035;SDS011;64247;51.540;5.854;2023-03-17T09:52:32;3.53;;;2.10;;
75035;SDS011;64247;51.540;5.854;2023-03-17T09:54:35;2.65;;;2.45;;
75035;SDS011;64247;51.540;5.854;2023-03-17T09:56:39;1.60;;;1.42;;
75035;SDS011;64247;51.540;5.854;2023-03-17T09:58:49;3.30;;;2.40;;
75035;SDS011;64247;51.540;5.854;2023-03-17T10:00:58;4.07;;;2.08;;
75035;SDS011;64247;51.540;5.854;2023-03-17T10:03:04;3.53;;;2.17;;
75035;SDS011;64247;51.540;5.854;2023-03-17T10:05:17;2.67;;;2.00;;
75035;SDS011;64247;51.540;5.854;2023-03-17T10:07:26;2.92;;;2.20;;
75035;SDS011;64247;51.540;5.854;2023-03-17T10:12:26;3.47;;;2.42;;
75035;SDS011;64247;51.540;5.854;2023-03-17T10:15:29;2.58;;;2.22;;
75035;SDS011;64247;51.540;5.854;2023-03-17T10:17:48;2.67;;;2.13;;
75035;SDS011;64247;51.540;5.854;2023-03-17T10:22:38;3.30;;;2.05;;
75035;SDS011;64247;51.540;5.854;2023-03-17T10:24:53;3.60;;;2.33;;
75035;SDS011;64247;51.540;5.854;2023-03-17T10:29:15;3.15;;;2.08;;
75035;SDS011;64247;51.540;5.854;2023-03-17T10:31:27;2.42;;;2.00;;
75035;SDS011;64247;51.540;5.854;2023-03-17T10:33:32;2.88;;;1.63;;
75035;SDS011;64247;51.540;5.854;2023-03-17T10:35:33;3.60;;;2.10;;
75035;SDS011;64247;51.540;5.854;2023-03-17T10:37:38;3.90;;;2.22;;
75035;SDS011;64247;51.540;5.854;2023-03-17T10:39:46;2.83;;;2.00;;
75035;SDS011;64247;51.540;5.854;2023-03-17T10:41:58;2.40;;;2.20;;
75035;SDS011;64247;51.540;5.854;2023-03-17T10:44:19;2.45;;;2.20;;
75035;SDS011;64247;51.540;5.854;2023-03-17T10:46:51;5.72;;;2.20;;
75035;SDS011;64247;51.540;5.854;2023-03-17T10:48:56;2.28;;;2.08;;
75035;SDS011;64247;51.540;5.854;2023-03-17T10:51:08;6.70;;;3.10;;
75035;SDS011;64247;51.540;5.854;2023-03-17T10:53:28;5.18;;;2.38;;
75035;SDS011;64247;51.540;5.854;2023-03-17T10:55:46;3.03;;;2.20;;
75035;SDS011;64247;51.540;5.854;2023-03-17T10:58:15;9.98;;;3.65;;
75035;SDS011;64247;51.540;5.854;2023-03-17T11:00:20;4.85;;;2.85;;
75035;SDS011;64247;51.540;5.854;2023-03-17T11:02:26;5.07;;;3.40;;
75035;SDS011;64247;51.540;5.854;2023-03-17T11:04:32;4.78;;;3.20;;
75035;SDS011;64247;51.540;5.854;2023-03-17T11:06:40;3.33;;;2.40;;
75035;SDS011;64247;51.540;5.854;2023-03-17T11:08:50;5.53;;;2.90;;
75035;SDS011;64247;51.540;5.854;2023-03-17T11:10:54;4.15;;;2.45;;
75035;SDS011;64247;51.540;5.854;2023-03-17T11:12:59;4.65;;;2.65;;
75035;SDS011;64247;51.540;5.854;2023-03-17T11:15:03;5.25;;;3.13;;
75035;SDS011;64247;51.540;5.854;2023-03-17T11:17:15;4.22;;;2.55;;
75035;SDS011;64247;51.540;5.854;2023-03-17T11:22:52;3.72;;;2.78;;
75035;SDS011;64247;51.540;5.854;2023-03-17T11:27:39;3.13;;;2.30;;
75035;SDS011;64247;51.540;5.854;2023-03-17T11:32:39;4.78;;;2.65;;
75035;SDS011;64247;51.540;5.854;2023-03-17T11:38:33;3.83;;;3.53;;
75035;SDS011;64247;51.540;5.854;2023-03-17T11:40:28;7.10;;;3.47;;
75035;SDS011;64247;51.540;5.854;2023-03-17T11:43:07;3.58;;;3.28;;
75035;SDS011;64247;51.540;5.854;2023-03-17T11:51:45;5.05;;;2.67;;
75035;SDS011;64247;51.540;5.854;2023-03-17T12:00:17;4.68;;;2.45;;
75035;SDS011;64247;51.540;5.854;2023-03-17T12:05:19;5.10;;;2.88;;
75035;SDS011;64247;51.540;5.854;2023-03-17T12:07:27;3.90;;;3.13;;
75035;SDS011;64247;51.540;5.854;2023-03-17T12:13:00;2.83;;;2.05;;
75035;SDS011;64247;51.540;5.854;2023-03-17T12:15:13;5.05;;;3.00;;
75035;SDS011;64247;51.540;5.854;2023-03-17T12:17:42;4.30;;;3.00;;
75035;SDS011;64247;51.540;5.854;2023-03-17T12:22:30;4.63;;;2.75;;
75035;SDS011;64247;51.540;5.854;2023-03-17T12:25:01;4.20;;;2.95;;
75035;SDS011;64247;51.540;5.854;2023-03-17T12:27:35;5.70;;;2.97;;
75035;SDS011;64247;51.540;5.854;2023-03-17T12:29:48;5.72;;;3.00;;
75035;SDS011;64247;51.540;5.854;2023-03-17T12:37:13;3.65;;;2.42;;
75035;SDS011;64247;51.540;5.854;2023-03-17T12:39:30;6.38;;;2.45;;
75035;SDS011;64247;51.540;5.854;2023-03-17T12:44:36;4.50;;;2.47;;
75035;SDS011;64247;51.540;5.854;2023-03-17T12:53:40;6.28;;;3.53;;
75035;SDS011;64247;51.540;5.854;2023-03-17T12:55:49;4.97;;;2.95;;
75035;SDS011;64247;51.540;5.854;2023-03-17T12:57:59;5.25;;;2.65;;
75035;SDS011;64247;51.540;5.854;2023-03-17T13:00:26;9.23;;;2.88;;
75035;SDS011;64247;51.540;5.854;2023-03-17T13:02:36;2.80;;;2.50;;
75035;SDS011;64247;51.540;5.854;2023-03-17T13:04:39;3.40;;;2.40;;
75035;SDS011;64247;51.540;5.854;2023-03-17T13:07:05;4.43;;;2.72;;
75035;SDS011;64247;51.540;5.854;2023-03-17T13:21:49;7.80;;;3.22;;
75035;SDS011;64247;51.540;5.854;2023-03-17T13:34:45;9.02;;;3.45;;
75035;SDS011;64247;51.540;5.854;2023-03-17T13:37:46;5.63;;;2.80;;
75035;SDS011;64247;51.540;5.854;2023-03-17T13:42:36;3.22;;;2.40;;
75035;SDS011;64247;51.540;5.854;2023-03-17T13:51:32;5.10;;;3.42;;
75035;SDS011;64247;51.540;5.854;2023-03-17T13:53:40;4.57;;;2.60;;
75035;SDS011;64247;51.540;5.854;2023-03-17T13:56:07;6.22;;;3.70;;
75035;SDS011;64247;51.540;5.854;2023-03-17T13:58:50;6.20;;;3.25;;
75035;SDS011;64247;51.540;5.854;2023-03-17T14:01:18;4.75;;;4.13;;
75035;SDS011;64247;51.540;5.854;2023-03-17T14:03:25;3.47;;;2.88;;
75035;SDS011;64247;51.540;5.854;2023-03-17T14:05:39;7.30;;;2.65;;
75035;SDS011;64247;51.540;5.854;2023-03-17T14:10:23;5.15;;;3.30;;
75035;SDS011;64247;51.540;5.854;2023-03-17T14:12:35;3.75;;;3.13;;
75035;SDS011;64247;51.540;5.854;2023-03-17T14:17:43;2.47;;;1.73;;
75035;SDS011;64247;51.540;5.854;2023-03-17T14:22:26;5.72;;;3.00;;
75035;SDS011;64247;51.540;5.854;2023-03-17T14:24:28;4.07;;;2.30;;